TXKF/BDA METAR and TAF weather

Enter ICAO airport designator
Station Type Date Time Source
TXKF METAR 2022/01/18 07:55 UTC NOAA

TXKF 180755Z 24017KT 9999 FEW030 20/15 Q1006


Station Type Date Time Source
TXKF Decoded METAR 2022/01/18 07:55 UTC NOAA

Bermuda, Bermuda (TXKF) 32-22N 064-41W
Jan 18, 2022 - 02:55 AM EST / 2022.01.18 0755 UTC
Wind: from the WSW (240 degrees) at 20 MPH (17 KT):0
Visibility: greater than 7 mile(s):0
Sky conditions: mostly clear
Temperature: 68 F (20 C)
Dew Point: 59 F (15 C)
Relative Humidity: 72%
Pressure (altimeter): 29.71 in. Hg (1006 hPa)
ob: TXKF 180755Z 24017KT 9999 FEW030 20/15 Q1006
cycle: 8

Station Type Date Time Source
TXKF TAF 2022/01/18 06:43 UTC NOAA

TAF TXKF 180535Z 1806/1906 25018KT 9999 VCSH FEW015 SCT020 BKN035 OVC075 PROB30
TEMPO 1809/1821 28023KT 6000 SHRA FEW009 SCT015 BKN020
BECMG 1820/1824 30018KT

Example: see airport list